createdAt,value
2023-07-03T00:00:01.701Z,5.63
2023-07-03T00:02:28.295Z,6.88
2023-07-03T00:04:55.094Z,6.03
2023-07-03T00:07:21.710Z,5.70
2023-07-03T00:09:48.556Z,6.35
2023-07-03T00:12:15.055Z,6.13
2023-07-03T00:14:41.524Z,5.72
2023-07-03T00:17:11.779Z,6.30
2023-07-03T00:19:38.287Z,6.22
2023-07-03T00:22:05.260Z,6.78
2023-07-03T00:24:32.938Z,6.55
2023-07-03T00:27:00.145Z,6.43
2023-07-03T00:29:30.614Z,6.13
2023-07-03T00:31:57.310Z,6.22
2023-07-03T00:34:24.191Z,6.53
2023-07-03T00:36:50.667Z,6.70
2023-07-03T00:39:17.158Z,6.03
2023-07-03T00:41:43.730Z,6.15
2023-07-03T00:44:16.618Z,6.03
2023-07-03T00:46:45.400Z,6.85
2023-07-03T00:49:12.768Z,5.85
2023-07-03T00:51:43.376Z,6.78
2023-07-03T00:54:09.891Z,6.50
2023-07-03T00:56:36.546Z,7.00
2023-07-03T00:59:04.871Z,7.10
2023-07-03T01:01:58.787Z,7.35
2023-07-03T01:04:32.416Z,7.05
2023-07-03T01:07:27.213Z,6.38
2023-07-03T01:10:01.192Z,7.28
2023-07-03T01:12:31.270Z,7.22
2023-07-03T01:15:04.872Z,6.57
2023-07-03T01:17:33.142Z,6.65
2023-07-03T01:20:02.581Z,6.70
2023-07-03T01:22:37.622Z,6.75
2023-07-03T01:25:11.491Z,6.82
2023-07-03T01:27:42.492Z,7.60
2023-07-03T01:30:13.205Z,7.38
2023-07-03T01:32:40.696Z,6.23
2023-07-03T01:35:12.702Z,7.10
2023-07-03T01:37:44.617Z,8.18
2023-07-03T01:40:13.321Z,7.13
2023-07-03T01:42:42.178Z,7.43
2023-07-03T01:45:10.183Z,6.97
2023-07-03T01:47:38.254Z,7.40
2023-07-03T01:50:08.844Z,6.20
2023-07-03T01:52:47.870Z,6.80
2023-07-03T01:55:24.988Z,6.60
2023-07-03T01:58:10.332Z,6.88
2023-07-03T02:00:49.645Z,6.60
2023-07-03T02:03:25.649Z,7.47
2023-07-03T02:05:56.290Z,7.82
2023-07-03T02:08:25.117Z,6.85
2023-07-03T02:10:51.631Z,6.60
2023-07-03T02:13:18.097Z,6.75
2023-07-03T02:15:44.628Z,7.22
2023-07-03T02:18:18.712Z,6.57
2023-07-03T02:20:46.002Z,7.00
2023-07-03T02:23:12.582Z,7.57
2023-07-03T02:25:39.077Z,7.53
2023-07-03T02:28:07.499Z,7.65
2023-07-03T02:30:33.998Z,7.32
2023-07-03T02:33:00.565Z,7.30
2023-07-03T02:35:27.140Z,6.90
2023-07-03T02:37:53.927Z,7.30
2023-07-03T02:40:20.458Z,6.93
2023-07-03T02:42:46.972Z,8.15
2023-07-03T02:45:13.433Z,7.22
2023-07-03T02:47:40.097Z,7.20
2023-07-03T02:50:08.525Z,7.55
2023-07-03T02:52:35.064Z,7.53
2023-07-03T02:55:01.604Z,7.10
2023-07-03T02:57:29.364Z,7.47
2023-07-03T02:59:55.970Z,7.03
2023-07-03T03:02:22.577Z,7.93
2023-07-03T03:04:49.398Z,6.68
2023-07-03T03:07:16.436Z,8.27
2023-07-03T03:09:42.962Z,8.32
2023-07-03T03:12:10.071Z,7.57
2023-07-03T03:14:36.787Z,6.70
2023-07-03T03:17:03.623Z,7.38
2023-07-03T03:19:30.126Z,7.25
2023-07-03T03:21:56.681Z,7.25
2023-07-03T03:24:23.317Z,7.30
2023-07-03T03:26:49.838Z,7.95
2023-07-03T03:29:16.340Z,7.60
2023-07-03T03:31:42.844Z,7.68
2023-07-03T03:34:09.421Z,7.43
2023-07-03T03:36:39.935Z,7.43
2023-07-03T03:39:07.146Z,7.20
2023-07-03T03:41:33.640Z,7.03
2023-07-03T03:44:00.146Z,7.05
2023-07-03T03:46:26.733Z,8.18
2023-07-03T03:48:53.420Z,7.28
2023-07-03T03:51:20.104Z,6.90
2023-07-03T03:53:46.593Z,7.20
2023-07-03T03:56:13.113Z,7.30
2023-07-03T03:58:39.690Z,7.65
2023-07-03T04:01:06.235Z,7.72
2023-07-03T04:03:32.779Z,7.85
2023-07-03T04:05:59.804Z,9.18
2023-07-03T04:08:26.297Z,9.70
2023-07-03T04:10:52.810Z,8.32
2023-07-03T04:13:19.374Z,8.20
2023-07-03T04:15:58.905Z,7.25
2023-07-03T04:18:26.913Z,7.35
2023-07-03T04:20:53.479Z,8.18
2023-07-03T04:23:20.158Z,7.43
2023-07-03T04:25:47.228Z,8.75
2023-07-03T04:28:14.510Z,7.15
2023-07-03T04:30:41.031Z,8.10
2023-07-03T04:33:07.642Z,7.32
2023-07-03T04:35:34.234Z,10.93
2023-07-03T04:38:02.591Z,8.13
2023-07-03T04:40:31.039Z,7.82
2023-07-03T04:42:57.908Z,7.95
2023-07-03T04:45:25.878Z,7.90
2023-07-03T04:47:53.067Z,7.68
2023-07-03T04:50:19.611Z,7.93
2023-07-03T04:52:47.585Z,7.22
2023-07-03T04:55:14.173Z,8.13
2023-07-03T04:57:42.044Z,8.95
2023-07-03T05:00:15.948Z,8.70
2023-07-03T05:02:47.406Z,7.88
2023-07-03T05:05:15.588Z,7.68
2023-07-03T05:07:43.417Z,7.72
2023-07-03T05:10:11.730Z,8.07
2023-07-03T05:12:38.618Z,8.55
2023-07-03T05:15:08.482Z,7.68
2023-07-03T05:17:39.509Z,8.05
2023-07-03T05:20:12.288Z,7.78
2023-07-03T05:22:40.544Z,7.82
2023-07-03T05:25:09.073Z,7.80
2023-07-03T05:27:36.513Z,8.15
2023-07-03T05:30:04.572Z,8.30
2023-07-03T05:32:31.306Z,7.60
2023-07-03T05:34:57.949Z,8.73
2023-07-03T05:37:24.476Z,8.40
2023-07-03T05:39:51.002Z,8.15
2023-07-03T05:42:18.099Z,7.68
2023-07-03T05:44:45.656Z,7.93
2023-07-03T05:47:13.331Z,8.27
2023-07-03T05:49:40.458Z,7.93
2023-07-03T05:52:07.467Z,8.30
2023-07-03T05:54:34.039Z,7.90
2023-07-03T05:57:10.430Z,8.80
2023-07-03T05:59:38.813Z,7.60
2023-07-03T06:02:14.280Z,7.90
2023-07-03T06:04:41.774Z,7.53
2023-07-03T06:07:09.275Z,8.85
2023-07-03T06:09:36.787Z,7.18
2023-07-03T06:12:04.152Z,7.88
2023-07-03T06:14:32.943Z,8.73
2023-07-03T06:17:00.138Z,7.57
2023-07-03T06:19:28.154Z,7.35
2023-07-03T06:21:55.522Z,7.85
2023-07-03T06:24:22.200Z,8.05
2023-07-03T06:26:48.892Z,7.22
2023-07-03T06:29:15.826Z,7.18
2023-07-03T06:31:43.012Z,6.85
2023-07-03T06:34:10.207Z,6.85
2023-07-03T06:36:36.675Z,6.28
2023-07-03T06:39:05.938Z,6.68
2023-07-03T06:41:35.838Z,7.28
2023-07-03T06:44:04.670Z,6.65
2023-07-03T06:46:32.397Z,6.20
2023-07-03T06:48:59.039Z,6.07
2023-07-03T06:51:26.344Z,6.13
2023-07-03T06:53:53.262Z,5.47
2023-07-03T06:56:21.282Z,6.68
2023-07-03T06:58:51.036Z,6.22
2023-07-03T07:01:21.223Z,7.05
2023-07-03T07:03:48.031Z,6.13
2023-07-03T07:06:17.867Z,6.57
2023-07-03T07:08:44.645Z,7.60
2023-07-03T07:11:14.146Z,6.45
2023-07-03T07:13:46.373Z,7.03
2023-07-03T07:16:22.124Z,6.10
2023-07-03T07:18:51.932Z,6.20
2023-07-03T07:21:18.603Z,6.20
2023-07-03T07:23:54.808Z,6.20
2023-07-03T07:26:22.229Z,6.30
2023-07-03T07:28:48.727Z,7.00
2023-07-03T07:31:24.222Z,5.97
2023-07-03T07:33:51.630Z,7.10
2023-07-03T07:36:21.488Z,6.82
2023-07-03T07:38:50.193Z,6.47
2023-07-03T07:41:16.827Z,6.30
2023-07-03T07:43:43.312Z,6.38
2023-07-03T07:46:09.968Z,6.55
2023-07-03T07:48:36.490Z,5.88
2023-07-03T07:51:08.338Z,6.03
2023-07-03T07:53:35.154Z,6.30
2023-07-03T07:56:01.650Z,5.90
2023-07-03T07:58:28.471Z,7.05
2023-07-03T08:00:57.615Z,6.72
2023-07-03T08:03:25.211Z,6.45
2023-07-03T08:05:57.461Z,5.88
2023-07-03T08:08:24.053Z,5.80
2023-07-03T08:10:55.082Z,5.95
2023-07-03T08:13:22.307Z,6.88
2023-07-03T08:15:49.480Z,6.50
2023-07-03T08:18:17.116Z,6.35
2023-07-03T08:20:44.279Z,6.50
2023-07-03T08:23:11.501Z,6.25
2023-07-03T08:25:38.550Z,6.93
2023-07-03T08:28:05.600Z,6.05
2023-07-03T08:30:32.599Z,6.05
2023-07-03T08:32:59.123Z,6.57
2023-07-03T08:37:56.087Z,5.63
2023-07-03T08:40:23.878Z,6.38
2023-07-03T08:42:54.424Z,5.95
2023-07-03T08:45:24.223Z,5.68
2023-07-03T08:47:55.344Z,5.35
2023-07-03T08:50:35.689Z,5.50
2023-07-03T08:55:43.673Z,5.38
2023-07-03T08:58:10.590Z,6.00
2023-07-03T09:01:07.948Z,5.50
2023-07-03T09:03:59.002Z,6.07
2023-07-03T09:06:44.351Z,5.30
2023-07-03T09:09:28.959Z,6.30
2023-07-03T09:12:19.934Z,4.53
2023-07-03T09:14:56.568Z,5.22
2023-07-03T09:17:25.289Z,5.03
2023-07-03T09:19:53.873Z,4.65
2023-07-03T09:22:34.027Z,4.47
2023-07-03T09:25:04.815Z,5.25
2023-07-03T09:27:32.630Z,4.68
2023-07-03T09:30:06.161Z,4.43
2023-07-03T09:32:33.836Z,4.53
2023-07-03T09:35:09.980Z,4.32
2023-07-03T09:37:40.492Z,5.43
2023-07-03T09:40:11.363Z,4.73
2023-07-03T09:42:38.296Z,4.28
2023-07-03T09:45:13.972Z,4.53
2023-07-03T09:47:43.444Z,3.85
2023-07-03T09:50:10.247Z,4.57
2023-07-03T09:53:03.104Z,4.07
2023-07-03T09:55:33.472Z,4.35
2023-07-03T09:58:00.379Z,3.88
2023-07-03T10:00:27.721Z,3.83
2023-07-03T10:08:04.930Z,3.95
2023-07-03T10:13:15.337Z,3.92
2023-07-03T10:15:43.206Z,3.92
2023-07-03T10:18:21.426Z,3.83
2023-07-03T10:20:51.289Z,4.25
2023-07-03T10:23:24.323Z,3.90
2023-07-03T10:25:55.986Z,4.43
2023-07-03T10:28:27.660Z,4.43
2023-07-03T10:30:59.652Z,4.40
2023-07-03T10:33:31.844Z,4.22
2023-07-03T10:35:59.013Z,3.88
2023-07-03T10:38:49.705Z,4.30
2023-07-03T10:41:25.938Z,3.83
2023-07-03T10:44:07.692Z,3.92
2023-07-03T10:46:43.987Z,3.65
2023-07-03T10:49:22.409Z,3.85
2023-07-03T10:51:56.615Z,3.92
2023-07-03T10:54:32.639Z,3.90
2023-07-03T10:57:02.372Z,4.28
2023-07-03T10:59:34.291Z,4.63
2023-07-03T11:02:28.056Z,4.30
2023-07-03T11:05:09.613Z,4.03
2023-07-03T11:08:05.052Z,4.30
2023-07-03T11:10:36.594Z,4.00
2023-07-03T11:13:15.885Z,4.50
2023-07-03T11:15:51.326Z,4.07
2023-07-03T11:24:00.906Z,3.83
2023-07-03T11:31:42.507Z,3.35
2023-07-03T11:36:51.291Z,4.00
2023-07-03T11:44:34.247Z,3.92
2023-07-03T11:47:05.819Z,4.15
2023-07-03T11:49:38.868Z,3.53
2023-07-03T11:54:36.595Z,3.15
2023-07-03T11:57:03.047Z,3.85
2023-07-03T11:59:32.644Z,4.13
2023-07-03T12:05:51.699Z,4.30
2023-07-03T12:08:24.316Z,4.18
2023-07-03T12:10:50.786Z,3.90
2023-07-03T12:13:44.806Z,4.25
2023-07-03T12:16:21.820Z,4.35
2023-07-03T12:18:57.690Z,4.03
2023-07-03T12:21:25.104Z,3.92
2023-07-03T12:23:52.523Z,4.15
2023-07-03T12:26:19.093Z,4.22
2023-07-03T12:28:46.255Z,3.92
2023-07-03T12:31:17.059Z,3.72
2023-07-03T12:33:53.202Z,4.00
2023-07-03T12:36:24.574Z,4.40
2023-07-03T12:38:51.179Z,3.53
2023-07-03T12:41:23.702Z,3.88
2023-07-03T12:44:00.049Z,4.18
2023-07-03T12:46:41.548Z,3.88
2023-07-03T12:49:12.574Z,4.60
2023-07-03T12:51:55.352Z,3.53
2023-07-03T12:54:23.380Z,4.03
2023-07-03T12:56:52.141Z,3.83
2023-07-03T12:59:23.977Z,3.60
2023-07-03T13:01:54.121Z,3.47
2023-07-03T13:04:29.360Z,4.10
2023-07-03T13:06:57.053Z,3.60
2023-07-03T13:09:24.979Z,4.32
2023-07-03T13:11:52.038Z,4.05
2023-07-03T13:14:24.060Z,3.97
2023-07-03T13:16:54.147Z,3.72
2023-07-03T13:19:31.784Z,4.18
2023-07-03T13:22:00.076Z,4.25
2023-07-03T13:24:28.651Z,4.13
2023-07-03T13:26:56.854Z,4.55
2023-07-03T13:29:31.583Z,4.13
2023-07-03T13:32:22.606Z,4.00
2023-07-03T13:35:02.262Z,4.20
2023-07-03T13:37:31.880Z,3.75
2023-07-03T13:40:02.053Z,4.00
2023-07-03T13:42:29.782Z,4.72
2023-07-03T13:44:56.259Z,3.95
2023-07-03T13:47:24.439Z,4.57
2023-07-03T13:49:53.194Z,4.10
2023-07-03T13:52:19.972Z,4.68
2023-07-03T13:54:46.631Z,4.35
2023-07-03T13:57:13.101Z,3.55
2023-07-03T13:59:39.593Z,3.67
2023-07-03T14:02:06.664Z,4.00
2023-07-03T14:04:33.195Z,4.05
2023-07-03T14:06:59.817Z,3.80
2023-07-03T14:09:27.126Z,3.95
2023-07-03T14:11:53.757Z,3.95
2023-07-03T14:14:20.799Z,3.55
2023-07-03T14:16:47.358Z,4.05
2023-07-03T14:19:13.868Z,3.63
2023-07-03T14:21:40.472Z,4.38
2023-07-03T14:24:06.992Z,4.10
2023-07-03T14:26:33.495Z,4.10
2023-07-03T14:29:00.007Z,4.65
2023-07-03T14:35:13.280Z,4.85
2023-07-03T14:37:39.771Z,3.95
2023-07-03T14:40:07.156Z,3.42
2023-07-03T14:42:33.935Z,4.88
2023-07-03T14:45:00.417Z,4.32
2023-07-03T14:47:26.995Z,4.90
2023-07-03T14:49:53.730Z,4.30
2023-07-03T14:52:20.650Z,4.03
2023-07-03T14:54:50.562Z,3.83
2023-07-03T14:57:17.111Z,4.32
2023-07-03T14:59:44.280Z,3.78
2023-07-03T15:02:11.031Z,4.20
2023-07-03T15:04:37.708Z,4.00
2023-07-03T15:07:04.477Z,3.88
2023-07-03T15:09:34.039Z,4.45
2023-07-03T15:12:00.593Z,3.75
2023-07-03T15:14:27.125Z,4.03
2023-07-03T15:16:53.600Z,4.00
2023-07-03T15:19:20.129Z,4.07
2023-07-03T15:21:46.582Z,3.28
2023-07-03T15:24:13.296Z,4.07
2023-07-03T15:26:39.874Z,3.92
2023-07-03T15:29:06.405Z,4.25
2023-07-03T15:31:32.945Z,3.22
2023-07-03T15:33:59.491Z,3.45
2023-07-03T15:36:26.307Z,3.85
2023-07-03T15:38:52.875Z,3.85
2023-07-03T15:41:19.395Z,3.58
2023-07-03T15:43:47.465Z,4.13
2023-07-03T15:46:17.521Z,3.00
2023-07-03T15:48:45.808Z,3.55
2023-07-03T15:51:14.221Z,3.15
2023-07-03T15:53:40.860Z,3.33
2023-07-03T15:56:15.021Z,3.25
2023-07-03T15:58:44.140Z,3.28
2023-07-03T16:01:18.260Z,3.85
2023-07-03T16:03:46.036Z,3.88
2023-07-03T16:06:15.111Z,3.00
2023-07-03T16:08:42.403Z,3.33
2023-07-03T16:11:12.184Z,3.83
2023-07-03T16:13:39.448Z,3.40
2023-07-03T16:16:08.474Z,3.75
2023-07-03T16:18:35.247Z,3.63
2023-07-03T16:21:03.905Z,3.60
2023-07-03T16:23:32.030Z,2.90
2023-07-03T16:26:03.650Z,5.25
2023-07-03T16:28:33.675Z,3.85
2023-07-03T16:31:05.942Z,3.45
2023-07-03T16:33:35.755Z,3.70
2023-07-03T16:36:07.524Z,3.00
2023-07-03T16:38:34.335Z,3.85
2023-07-03T16:41:05.791Z,4.10
2023-07-03T16:43:32.989Z,3.20
2023-07-03T16:46:06.602Z,3.25
2023-07-03T16:48:34.707Z,3.90
2023-07-03T16:51:03.121Z,3.35
2023-07-03T16:53:32.264Z,3.63
2023-07-03T16:56:11.096Z,3.40
2023-07-03T16:58:38.481Z,3.60
2023-07-03T17:01:10.896Z,3.22
2023-07-03T17:03:38.331Z,3.70
2023-07-03T17:06:08.613Z,3.30
2023-07-03T17:08:35.133Z,3.50
2023-07-03T17:11:02.029Z,3.90
2023-07-03T17:13:29.727Z,3.58
2023-07-03T17:15:56.794Z,3.75
2023-07-03T17:18:24.186Z,3.50
2023-07-03T17:20:51.003Z,4.00
2023-07-03T17:23:17.949Z,4.28
2023-07-03T17:25:44.696Z,3.75
2023-07-03T17:28:12.204Z,4.22
2023-07-03T17:30:39.810Z,4.05
2023-07-03T17:33:07.965Z,3.40
2023-07-03T17:35:45.663Z,4.18
2023-07-03T17:38:13.463Z,3.55
2023-07-03T17:40:42.866Z,4.22
2023-07-03T17:43:09.415Z,3.83
2023-07-03T17:45:35.939Z,3.58
2023-07-03T17:48:03.240Z,3.95
2023-07-03T17:50:29.859Z,4.20
2023-07-03T17:52:56.347Z,4.03
2023-07-03T17:55:23.128Z,3.92
2023-07-03T17:57:49.765Z,3.53
2023-07-03T18:00:16.552Z,3.72
2023-07-03T18:02:43.105Z,3.63
2023-07-03T18:05:10.764Z,4.00
2023-07-03T18:07:37.621Z,3.47
2023-07-03T18:10:04.636Z,2.65
2023-07-03T18:12:31.354Z,3.47
2023-07-03T18:14:57.936Z,4.00
2023-07-03T18:17:25.808Z,4.72
2023-07-03T18:19:52.298Z,4.13
2023-07-03T18:22:19.085Z,4.03
2023-07-03T18:24:45.663Z,3.35
2023-07-03T18:27:12.400Z,4.30
2023-07-03T18:29:38.969Z,4.47
2023-07-03T18:32:05.824Z,3.50
2023-07-03T18:34:32.316Z,3.63
2023-07-03T18:36:58.827Z,3.63
2023-07-03T18:39:25.436Z,4.32
2023-07-03T18:41:51.970Z,4.20
2023-07-03T18:44:18.445Z,5.07
2023-07-03T18:46:47.018Z,5.18
2023-07-03T18:49:15.207Z,3.40
2023-07-03T18:51:41.816Z,3.42
2023-07-03T18:54:08.317Z,4.22
2023-07-03T18:56:34.820Z,4.63
2023-07-03T18:59:01.357Z,3.70
2023-07-03T19:01:28.012Z,3.75
2023-07-03T19:03:54.741Z,3.85
2023-07-03T19:06:22.606Z,3.30
2023-07-03T19:08:49.097Z,3.92
2023-07-03T19:11:15.766Z,3.67
2023-07-03T19:13:42.299Z,4.00
2023-07-03T19:16:10.809Z,3.75
2023-07-03T19:18:38.015Z,3.70
2023-07-03T19:21:04.510Z,4.18
2023-07-03T19:23:31.054Z,5.30
2023-07-03T19:25:59.135Z,4.45
2023-07-03T19:28:27.169Z,3.83
2023-07-03T19:30:56.159Z,5.22
2023-07-03T19:33:23.406Z,4.15
2023-07-03T19:35:50.273Z,4.20
2023-07-03T19:38:17.839Z,4.55
2023-07-03T19:40:44.412Z,5.45
2023-07-03T19:43:11.594Z,4.65
2023-07-03T19:45:39.410Z,4.20
2023-07-03T19:48:08.231Z,4.78
2023-07-03T19:50:37.958Z,4.03
2023-07-03T19:53:06.912Z,4.32
2023-07-03T19:55:34.469Z,5.13
2023-07-03T19:58:01.069Z,3.95
2023-07-03T20:00:27.748Z,4.57
2023-07-03T20:02:55.323Z,4.15
2023-07-03T20:05:22.936Z,4.07
2023-07-03T20:07:50.878Z,4.28
2023-07-03T20:10:17.485Z,4.05
2023-07-03T20:12:44.704Z,4.45
2023-07-03T20:15:11.686Z,4.63
2023-07-03T20:17:40.171Z,5.13
2023-07-03T20:20:07.861Z,4.57
2023-07-03T20:22:36.280Z,4.85
2023-07-03T20:25:03.575Z,5.13
2023-07-03T20:27:31.023Z,4.88
2023-07-03T20:29:57.838Z,4.63
2023-07-03T20:32:24.620Z,4.88
2023-07-03T20:34:52.207Z,5.60
2023-07-03T20:37:19.189Z,5.50
2023-07-03T20:39:46.766Z,4.68
2023-07-03T20:42:13.510Z,5.50
2023-07-03T20:44:42.444Z,5.18
2023-07-03T20:47:10.494Z,4.43
2023-07-03T20:49:37.087Z,4.70
2023-07-03T20:52:05.254Z,4.47
2023-07-03T20:54:38.107Z,5.30
2023-07-03T20:57:05.698Z,5.00
2023-07-03T20:59:35.574Z,4.40
2023-07-03T21:02:02.753Z,5.97
2023-07-03T21:04:29.318Z,4.78
2023-07-03T21:06:56.278Z,4.85
2023-07-03T21:09:22.983Z,5.55
2023-07-03T21:11:50.817Z,4.93
2023-07-03T21:14:18.428Z,6.28
2023-07-03T21:16:45.086Z,5.18
2023-07-03T21:19:13.371Z,5.15
2023-07-03T21:21:40.540Z,5.07
2023-07-03T21:24:11.783Z,5.13
2023-07-03T21:26:38.520Z,6.00
2023-07-03T21:29:05.826Z,5.38
2023-07-03T21:31:35.435Z,4.75
2023-07-03T21:34:02.371Z,5.18
2023-07-03T21:36:30.981Z,5.38
2023-07-03T21:38:59.301Z,4.93
2023-07-03T21:41:33.403Z,5.28
2023-07-03T21:44:04.823Z,4.97
2023-07-03T21:46:32.771Z,5.15
2023-07-03T21:48:59.637Z,4.78
2023-07-03T21:51:29.931Z,4.88
2023-07-03T21:53:57.383Z,5.28
2023-07-03T21:56:30.893Z,4.30
2023-07-03T21:59:00.251Z,5.55
2023-07-03T22:01:29.320Z,4.38
2023-07-03T22:03:56.072Z,5.18
2023-07-03T22:06:24.831Z,4.70
2023-07-03T22:08:51.688Z,4.70
2023-07-03T22:11:18.443Z,5.10
2023-07-03T22:13:45.584Z,4.97
2023-07-03T22:16:16.511Z,5.00
2023-07-03T22:18:44.433Z,4.85
2023-07-03T22:21:11.354Z,4.85
2023-07-03T22:23:38.568Z,4.82
2023-07-03T22:26:05.041Z,4.32
2023-07-03T22:28:31.536Z,5.80
2023-07-03T22:30:59.107Z,5.13
2023-07-03T22:33:25.931Z,5.38
2023-07-03T22:35:53.457Z,4.80
2023-07-03T22:38:20.681Z,5.20
2023-07-03T22:40:50.411Z,4.80
2023-07-03T22:43:17.277Z,5.00
2023-07-03T22:45:43.764Z,5.00
2023-07-03T22:48:10.349Z,5.07
2023-07-03T22:50:40.797Z,4.43
2023-07-03T22:53:08.060Z,4.70
2023-07-03T22:55:41.825Z,4.38
2023-07-03T22:58:11.619Z,4.80
2023-07-03T23:00:41.342Z,5.18
2023-07-03T23:03:10.081Z,4.65
2023-07-03T23:05:48.264Z,4.72
2023-07-03T23:08:16.208Z,4.57
2023-07-03T23:10:54.530Z,4.70
2023-07-03T23:13:22.479Z,4.55
2023-07-03T23:16:01.384Z,4.97
2023-07-03T23:18:30.947Z,4.32
2023-07-03T23:21:00.448Z,4.85
2023-07-03T23:23:30.407Z,4.43
2023-07-03T23:26:04.669Z,5.25
2023-07-03T23:28:32.856Z,5.57
2023-07-03T23:31:01.292Z,4.85
2023-07-03T23:33:30.346Z,4.15
2023-07-03T23:35:58.242Z,4.45
2023-07-03T23:38:27.415Z,4.30
2023-07-03T23:40:57.103Z,4.50
2023-07-03T23:43:24.123Z,5.35
2023-07-03T23:45:53.388Z,4.57
2023-07-03T23:48:20.580Z,4.60
2023-07-03T23:50:56.100Z,4.05
2023-07-03T23:53:24.447Z,4.90
2023-07-03T23:55:53.505Z,4.70
2023-07-03T23:58:22.582Z,4.53
